sensor_id;sensor_type;location;lat;lon;timestamp;P1;durP1;ratioP1;P2;durP2;ratioP2
37945;SDS011;23769;52.478;13.448;2024-03-02T00:01:37;64.60;;;32.78;;
37945;SDS011;23769;52.478;13.448;2024-03-02T00:04:04;63.45;;;33.90;;
37945;SDS011;23769;52.478;13.448;2024-03-02T00:06:32;62.30;;;32.55;;
37945;SDS011;23769;52.478;13.448;2024-03-02T00:08:59;65.85;;;34.38;;
37945;SDS011;23769;52.478;13.448;2024-03-02T00:11:27;72.68;;;39.85;;
37945;SDS011;23769;52.478;13.448;2024-03-02T00:13:54;62.53;;;36.83;;
37945;SDS011;23769;52.478;13.448;2024-03-02T00:16:21;61.88;;;34.45;;
37945;SDS011;23769;52.478;13.448;2024-03-02T00:18:51;62.30;;;35.30;;
37945;SDS011;23769;52.478;13.448;2024-03-02T00:21:18;57.28;;;31.67;;
37945;SDS011;23769;52.478;13.448;2024-03-02T00:23:47;57.70;;;32.20;;
37945;SDS011;23769;52.478;13.448;2024-03-02T00:26:17;57.13;;;31.30;;
37945;SDS011;23769;52.478;13.448;2024-03-02T00:28:44;62.83;;;33.83;;
37945;SDS011;23769;52.478;13.448;2024-03-02T00:31:11;57.80;;;33.83;;
37945;SDS011;23769;52.478;13.448;2024-03-02T00:33:40;57.38;;;33.28;;
37945;SDS011;23769;52.478;13.448;2024-03-02T00:36:10;54.10;;;31.58;;
37945;SDS011;23769;52.478;13.448;2024-03-02T00:38:42;61.63;;;32.05;;
37945;SDS011;23769;52.478;13.448;2024-03-02T00:41:15;61.20;;;33.67;;
37945;SDS011;23769;52.478;13.448;2024-03-02T00:43:43;57.40;;;34.72;;
37945;SDS011;23769;52.478;13.448;2024-03-02T00:46:11;60.35;;;36.60;;
37945;SDS011;23769;52.478;13.448;2024-03-02T00:48:39;67.53;;;37.72;;
37945;SDS011;23769;52.478;13.448;2024-03-02T00:51:06;58.80;;;34.50;;
37945;SDS011;23769;52.478;13.448;2024-03-02T00:53:36;63.33;;;36.88;;
37945;SDS011;23769;52.478;13.448;2024-03-02T00:56:04;67.40;;;37.97;;
37945;SDS011;23769;52.478;13.448;2024-03-02T00:58:31;68.93;;;39.20;;
37945;SDS011;23769;52.478;13.448;2024-03-02T01:00:58;67.70;;;39.50;;
37945;SDS011;23769;52.478;13.448;2024-03-02T01:03:26;70.82;;;39.55;;
37945;SDS011;23769;52.478;13.448;2024-03-02T01:05:53;70.43;;;40.17;;
37945;SDS011;23769;52.478;13.448;2024-03-02T01:08:20;71.30;;;39.10;;
37945;SDS011;23769;52.478;13.448;2024-03-02T01:10:49;69.80;;;41.50;;
37945;SDS011;23769;52.478;13.448;2024-03-02T01:13:16;64.28;;;35.92;;
37945;SDS011;23769;52.478;13.448;2024-03-02T01:15:43;78.55;;;41.08;;
37945;SDS011;23769;52.478;13.448;2024-03-02T01:18:11;63.22;;;37.38;;
37945;SDS011;23769;52.478;13.448;2024-03-02T01:20:38;66.82;;;39.30;;
37945;SDS011;23769;52.478;13.448;2024-03-02T01:23:05;71.00;;;40.80;;
37945;SDS011;23769;52.478;13.448;2024-03-02T01:25:33;71.65;;;39.83;;
37945;SDS011;23769;52.478;13.448;2024-03-02T01:28:02;67.57;;;37.85;;
37945;SDS011;23769;52.478;13.448;2024-03-02T01:30:29;67.53;;;39.97;;
37945;SDS011;23769;52.478;13.448;2024-03-02T01:32:56;69.05;;;39.75;;
37945;SDS011;23769;52.478;13.448;2024-03-02T01:35:25;67.10;;;40.80;;
37945;SDS011;23769;52.478;13.448;2024-03-02T01:37:52;70.60;;;37.53;;
37945;SDS011;23769;52.478;13.448;2024-03-02T01:40:20;75.65;;;40.05;;
37945;SDS011;23769;52.478;13.448;2024-03-02T01:42:48;68.80;;;38.72;;
37945;SDS011;23769;52.478;13.448;2024-03-02T01:45:17;68.43;;;36.95;;
37945;SDS011;23769;52.478;13.448;2024-03-02T01:47:45;71.05;;;38.53;;
37945;SDS011;23769;52.478;13.448;2024-03-02T01:50:12;68.90;;;39.30;;
37945;SDS011;23769;52.478;13.448;2024-03-02T01:52:39;80.28;;;45.30;;
37945;SDS011;23769;52.478;13.448;2024-03-02T01:55:07;71.63;;;41.90;;
37945;SDS011;23769;52.478;13.448;2024-03-02T01:57:34;68.85;;;38.35;;
37945;SDS011;23769;52.478;13.448;2024-03-02T02:00:02;72.25;;;40.72;;
37945;SDS011;23769;52.478;13.448;2024-03-02T02:02:32;73.82;;;40.65;;
37945;SDS011;23769;52.478;13.448;2024-03-02T02:04:59;75.53;;;41.97;;
37945;SDS011;23769;52.478;13.448;2024-03-02T02:07:26;77.32;;;43.50;;
37945;SDS011;23769;52.478;13.448;2024-03-02T02:09:53;69.38;;;39.15;;
37945;SDS011;23769;52.478;13.448;2024-03-02T02:12:21;75.10;;;42.30;;
37945;SDS011;23769;52.478;13.448;2024-03-02T02:14:48;73.60;;;41.95;;
37945;SDS011;23769;52.478;13.448;2024-03-02T02:17:15;73.20;;;41.50;;
37945;SDS011;23769;52.478;13.448;2024-03-02T02:19:44;75.15;;;41.83;;
37945;SDS011;23769;52.478;13.448;2024-03-02T02:22:12;76.80;;;42.50;;
37945;SDS011;23769;52.478;13.448;2024-03-02T02:24:40;76.50;;;43.15;;
37945;SDS011;23769;52.478;13.448;2024-03-02T02:27:07;82.03;;;40.97;;
37945;SDS011;23769;52.478;13.448;2024-03-02T02:29:35;67.20;;;38.13;;
37945;SDS011;23769;52.478;13.448;2024-03-02T02:32:03;77.20;;;42.00;;
37945;SDS011;23769;52.478;13.448;2024-03-02T02:34:30;73.78;;;41.78;;
37945;SDS011;23769;52.478;13.448;2024-03-02T02:36:57;76.28;;;40.63;;
37945;SDS011;23769;52.478;13.448;2024-03-02T02:39:26;71.93;;;39.17;;
37945;SDS011;23769;52.478;13.448;2024-03-02T02:41:53;68.07;;;39.85;;
37945;SDS011;23769;52.478;13.448;2024-03-02T02:44:20;65.70;;;40.35;;
37945;SDS011;23769;52.478;13.448;2024-03-02T02:46:48;64.78;;;35.90;;
37945;SDS011;23769;52.478;13.448;2024-03-02T02:49:15;57.33;;;33.92;;
37945;SDS011;23769;52.478;13.448;2024-03-02T02:51:42;64.25;;;36.55;;
37945;SDS011;23769;52.478;13.448;2024-03-02T02:54:09;66.57;;;35.85;;
37945;SDS011;23769;52.478;13.448;2024-03-02T02:56:38;63.97;;;36.58;;
37945;SDS011;23769;52.478;13.448;2024-03-02T02:59:05;74.07;;;43.78;;
37945;SDS011;23769;52.478;13.448;2024-03-02T03:01:32;68.53;;;37.50;;
37945;SDS011;23769;52.478;13.448;2024-03-02T03:04:00;65.95;;;34.85;;
37945;SDS011;23769;52.478;13.448;2024-03-02T03:06:27;67.97;;;38.67;;
37945;SDS011;23769;52.478;13.448;2024-03-02T03:08:54;68.85;;;39.47;;
37945;SDS011;23769;52.478;13.448;2024-03-02T03:11:22;66.85;;;38.88;;
37945;SDS011;23769;52.478;13.448;2024-03-02T03:13:52;61.38;;;34.60;;
37945;SDS011;23769;52.478;13.448;2024-03-02T03:16:20;62.67;;;33.53;;
37945;SDS011;23769;52.478;13.448;2024-03-02T03:18:48;62.03;;;35.03;;
37945;SDS011;23769;52.478;13.448;2024-03-02T03:21:16;68.32;;;37.67;;
37945;SDS011;23769;52.478;13.448;2024-03-02T03:23:43;64.80;;;36.13;;
37945;SDS011;23769;52.478;13.448;2024-03-02T03:26:11;70.35;;;36.25;;
37945;SDS011;23769;52.478;13.448;2024-03-02T03:28:38;71.05;;;37.80;;
37945;SDS011;23769;52.478;13.448;2024-03-02T03:31:07;63.47;;;35.15;;
37945;SDS011;23769;52.478;13.448;2024-03-02T03:33:35;63.30;;;34.28;;
37945;SDS011;23769;52.478;13.448;2024-03-02T03:36:03;62.80;;;33.92;;
37945;SDS011;23769;52.478;13.448;2024-03-02T03:38:30;53.35;;;31.75;;
37945;SDS011;23769;52.478;13.448;2024-03-02T03:40:57;55.83;;;31.77;;
37945;SDS011;23769;52.478;13.448;2024-03-02T03:43:25;59.65;;;33.28;;
37945;SDS011;23769;52.478;13.448;2024-03-02T03:45:52;57.65;;;31.88;;
37945;SDS011;23769;52.478;13.448;2024-03-02T03:48:20;54.63;;;30.98;;
37945;SDS011;23769;52.478;13.448;2024-03-02T03:50:48;53.85;;;31.15;;
37945;SDS011;23769;52.478;13.448;2024-03-02T03:53:15;53.42;;;31.35;;
37945;SDS011;23769;52.478;13.448;2024-03-02T03:55:42;53.97;;;33.55;;
37945;SDS011;23769;52.478;13.448;2024-03-02T03:58:11;52.90;;;32.85;;
37945;SDS011;23769;52.478;13.448;2024-03-02T04:00:39;60.85;;;35.63;;
37945;SDS011;23769;52.478;13.448;2024-03-02T04:03:06;56.35;;;32.03;;
37945;SDS011;23769;52.478;13.448;2024-03-02T04:05:35;54.13;;;32.38;;
37945;SDS011;23769;52.478;13.448;2024-03-02T04:08:03;52.45;;;31.40;;
37945;SDS011;23769;52.478;13.448;2024-03-02T04:10:31;56.25;;;31.40;;
37945;SDS011;23769;52.478;13.448;2024-03-02T04:12:59;56.55;;;32.83;;
37945;SDS011;23769;52.478;13.448;2024-03-02T04:15:26;50.00;;;29.60;;
37945;SDS011;23769;52.478;13.448;2024-03-02T04:17:53;52.97;;;32.03;;
37945;SDS011;23769;52.478;13.448;2024-03-02T04:20:21;56.42;;;32.60;;
37945;SDS011;23769;52.478;13.448;2024-03-02T04:22:50;53.92;;;33.25;;
37945;SDS011;23769;52.478;13.448;2024-03-02T04:25:17;52.00;;;29.25;;
37945;SDS011;23769;52.478;13.448;2024-03-02T04:27:45;57.72;;;30.65;;
37945;SDS011;23769;52.478;13.448;2024-03-02T04:30:12;58.60;;;32.58;;
37945;SDS011;23769;52.478;13.448;2024-03-02T04:32:39;51.08;;;31.13;;
37945;SDS011;23769;52.478;13.448;2024-03-02T04:35:07;49.75;;;28.75;;
37945;SDS011;23769;52.478;13.448;2024-03-02T04:37:35;54.13;;;28.55;;
37945;SDS011;23769;52.478;13.448;2024-03-02T04:40:04;47.72;;;27.70;;
37945;SDS011;23769;52.478;13.448;2024-03-02T04:42:33;47.55;;;28.42;;
37945;SDS011;23769;52.478;13.448;2024-03-02T04:45:00;50.40;;;28.65;;
37945;SDS011;23769;52.478;13.448;2024-03-02T04:47:28;46.03;;;27.83;;
37945;SDS011;23769;52.478;13.448;2024-03-02T04:49:55;46.22;;;28.65;;
37945;SDS011;23769;52.478;13.448;2024-03-02T04:52:22;51.75;;;30.35;;
37945;SDS011;23769;52.478;13.448;2024-03-02T04:54:50;46.50;;;27.25;;
37945;SDS011;23769;52.478;13.448;2024-03-02T04:57:46;48.90;;;26.35;;
37945;SDS011;23769;52.478;13.448;2024-03-02T05:00:16;54.35;;;31.38;;
37945;SDS011;23769;52.478;13.448;2024-03-02T05:02:43;46.08;;;27.25;;
37945;SDS011;23769;52.478;13.448;2024-03-02T05:05:10;45.20;;;26.38;;
37945;SDS011;23769;52.478;13.448;2024-03-02T05:07:38;49.58;;;29.70;;
37945;SDS011;23769;52.478;13.448;2024-03-02T05:10:07;44.70;;;26.48;;
37945;SDS011;23769;52.478;13.448;2024-03-02T05:12:34;46.25;;;27.70;;
37945;SDS011;23769;52.478;13.448;2024-03-02T05:15:23;46.38;;;28.92;;
37945;SDS011;23769;52.478;13.448;2024-03-02T05:17:50;41.03;;;25.40;;
37945;SDS011;23769;52.478;13.448;2024-03-02T05:20:18;47.75;;;27.40;;
37945;SDS011;23769;52.478;13.448;2024-03-02T05:22:45;43.13;;;27.02;;
37945;SDS011;23769;52.478;13.448;2024-03-02T05:25:13;46.15;;;29.30;;
37945;SDS011;23769;52.478;13.448;2024-03-02T05:27:40;47.95;;;27.73;;
37945;SDS011;23769;52.478;13.448;2024-03-02T05:30:08;49.53;;;28.60;;
37945;SDS011;23769;52.478;13.448;2024-03-02T05:32:37;47.40;;;28.38;;
37945;SDS011;23769;52.478;13.448;2024-03-02T05:35:05;50.03;;;30.85;;
37945;SDS011;23769;52.478;13.448;2024-03-02T05:37:33;50.63;;;30.05;;
37945;SDS011;23769;52.478;13.448;2024-03-02T05:40:00;45.63;;;26.90;;
37945;SDS011;23769;52.478;13.448;2024-03-02T05:42:27;46.70;;;27.50;;
37945;SDS011;23769;52.478;13.448;2024-03-02T05:44:55;50.53;;;30.05;;
37945;SDS011;23769;52.478;13.448;2024-03-02T05:47:22;47.95;;;28.40;;
37945;SDS011;23769;52.478;13.448;2024-03-02T05:49:50;51.75;;;30.25;;
37945;SDS011;23769;52.478;13.448;2024-03-02T05:52:18;52.60;;;31.88;;
37945;SDS011;23769;52.478;13.448;2024-03-02T05:54:46;52.83;;;32.00;;
37945;SDS011;23769;52.478;13.448;2024-03-02T05:57:14;49.25;;;31.38;;
37945;SDS011;23769;52.478;13.448;2024-03-02T06:02:24;55.42;;;32.03;;
37945;SDS011;23769;52.478;13.448;2024-03-02T06:04:52;50.45;;;30.35;;
37945;SDS011;23769;52.478;13.448;2024-03-02T06:07:20;57.10;;;34.38;;
37945;SDS011;23769;52.478;13.448;2024-03-02T06:09:47;52.70;;;33.25;;
37945;SDS011;23769;52.478;13.448;2024-03-02T06:12:16;51.72;;;31.30;;
37945;SDS011;23769;52.478;13.448;2024-03-02T06:14:44;56.90;;;31.60;;
37945;SDS011;23769;52.478;13.448;2024-03-02T06:17:11;57.03;;;31.95;;
37945;SDS011;23769;52.478;13.448;2024-03-02T06:19:38;59.17;;;31.30;;
37945;SDS011;23769;52.478;13.448;2024-03-02T06:22:07;57.00;;;29.60;;
37945;SDS011;23769;52.478;13.448;2024-03-02T06:24:36;54.97;;;32.63;;
37945;SDS011;23769;52.478;13.448;2024-03-02T06:27:04;55.92;;;32.65;;
37945;SDS011;23769;52.478;13.448;2024-03-02T06:29:32;64.10;;;37.42;;
37945;SDS011;23769;52.478;13.448;2024-03-02T06:32:00;56.05;;;35.03;;
37945;SDS011;23769;52.478;13.448;2024-03-02T06:34:27;53.88;;;31.85;;
37945;SDS011;23769;52.478;13.448;2024-03-02T06:36:54;58.50;;;34.35;;
37945;SDS011;23769;52.478;13.448;2024-03-02T06:39:23;55.40;;;33.03;;
37945;SDS011;23769;52.478;13.448;2024-03-02T06:41:51;58.53;;;33.00;;
37945;SDS011;23769;52.478;13.448;2024-03-02T06:44:18;58.40;;;33.65;;
37945;SDS011;23769;52.478;13.448;2024-03-02T06:46:46;56.35;;;31.23;;
37945;SDS011;23769;52.478;13.448;2024-03-02T06:49:13;50.15;;;28.95;;
37945;SDS011;23769;52.478;13.448;2024-03-02T06:51:43;59.55;;;32.33;;
37945;SDS011;23769;52.478;13.448;2024-03-02T06:54:10;55.58;;;32.20;;
37945;SDS011;23769;52.478;13.448;2024-03-02T06:56:38;57.45;;;31.45;;
37945;SDS011;23769;52.478;13.448;2024-03-02T06:59:06;54.67;;;30.98;;
37945;SDS011;23769;52.478;13.448;2024-03-02T07:01:33;55.90;;;32.78;;
37945;SDS011;23769;52.478;13.448;2024-03-02T07:04:01;55.20;;;32.60;;
37945;SDS011;23769;52.478;13.448;2024-03-02T07:06:28;54.80;;;31.27;;
37945;SDS011;23769;52.478;13.448;2024-03-02T07:08:55;56.60;;;31.02;;
37945;SDS011;23769;52.478;13.448;2024-03-02T07:11:22;53.15;;;30.20;;
37945;SDS011;23769;52.478;13.448;2024-03-02T07:13:51;54.75;;;32.15;;
37945;SDS011;23769;52.478;13.448;2024-03-02T07:16:18;55.35;;;30.45;;
37945;SDS011;23769;52.478;13.448;2024-03-02T07:18:53;47.08;;;28.48;;
37945;SDS011;23769;52.478;13.448;2024-03-02T07:21:21;54.35;;;29.83;;
37945;SDS011;23769;52.478;13.448;2024-03-02T07:23:48;50.88;;;28.75;;
37945;SDS011;23769;52.478;13.448;2024-03-02T07:26:15;49.00;;;29.25;;
37945;SDS011;23769;52.478;13.448;2024-03-02T07:28:44;52.78;;;34.13;;
37945;SDS011;23769;52.478;13.448;2024-03-02T07:31:13;48.03;;;28.45;;
37945;SDS011;23769;52.478;13.448;2024-03-02T07:33:40;49.25;;;26.90;;
37945;SDS011;23769;52.478;13.448;2024-03-02T07:36:07;50.17;;;29.02;;
37945;SDS011;23769;52.478;13.448;2024-03-02T07:38:35;52.08;;;30.48;;
37945;SDS011;23769;52.478;13.448;2024-03-02T07:41:01;51.40;;;30.45;;
37945;SDS011;23769;52.478;13.448;2024-03-02T07:43:29;54.60;;;31.77;;
37945;SDS011;23769;52.478;13.448;2024-03-02T07:45:58;50.03;;;29.05;;
37945;SDS011;23769;52.478;13.448;2024-03-02T07:48:26;55.97;;;32.17;;
37945;SDS011;23769;52.478;13.448;2024-03-02T07:50:54;48.72;;;27.23;;
37945;SDS011;23769;52.478;13.448;2024-03-02T07:53:21;49.08;;;29.65;;
37945;SDS011;23769;52.478;13.448;2024-03-02T07:55:48;51.38;;;29.13;;
37945;SDS011;23769;52.478;13.448;2024-03-02T07:58:15;50.22;;;29.10;;
37945;SDS011;23769;52.478;13.448;2024-03-02T08:00:44;54.55;;;30.77;;
37945;SDS011;23769;52.478;13.448;2024-03-02T08:03:11;58.90;;;31.60;;
37945;SDS011;23769;52.478;13.448;2024-03-02T08:05:40;44.10;;;26.70;;
37945;SDS011;23769;52.478;13.448;2024-03-02T08:08:07;52.28;;;31.67;;
37945;SDS011;23769;52.478;13.448;2024-03-02T08:10:34;48.00;;;28.33;;
37945;SDS011;23769;52.478;13.448;2024-03-02T08:13:02;57.05;;;31.52;;
37945;SDS011;23769;52.478;13.448;2024-03-02T08:15:29;50.20;;;27.33;;
37945;SDS011;23769;52.478;13.448;2024-03-02T08:17:56;49.40;;;31.13;;
37945;SDS011;23769;52.478;13.448;2024-03-02T08:20:24;50.95;;;29.05;;
37945;SDS011;23769;52.478;13.448;2024-03-02T08:22:52;47.28;;;28.92;;
37945;SDS011;23769;52.478;13.448;2024-03-02T08:25:20;44.75;;;26.67;;
37945;SDS011;23769;52.478;13.448;2024-03-02T08:27:47;46.75;;;27.73;;
37945;SDS011;23769;52.478;13.448;2024-03-02T08:30:15;47.80;;;27.50;;
37945;SDS011;23769;52.478;13.448;2024-03-02T08:32:43;44.05;;;27.00;;
37945;SDS011;23769;52.478;13.448;2024-03-02T08:35:12;45.60;;;27.15;;
37945;SDS011;23769;52.478;13.448;2024-03-02T08:37:39;42.83;;;26.08;;
37945;SDS011;23769;52.478;13.448;2024-03-02T08:40:10;43.40;;;27.08;;
37945;SDS011;23769;52.478;13.448;2024-03-02T08:42:38;45.90;;;27.23;;
37945;SDS011;23769;52.478;13.448;2024-03-02T08:45:05;43.25;;;24.95;;
37945;SDS011;23769;52.478;13.448;2024-03-02T08:47:33;51.38;;;27.90;;
37945;SDS011;23769;52.478;13.448;2024-03-02T08:50:00;44.72;;;26.85;;
37945;SDS011;23769;52.478;13.448;2024-03-02T08:52:29;43.33;;;25.77;;
37945;SDS011;23769;52.478;13.448;2024-03-02T08:54:56;43.85;;;25.08;;
37945;SDS011;23769;52.478;13.448;2024-03-02T08:57:24;46.75;;;29.98;;
37945;SDS011;23769;52.478;13.448;2024-03-02T08:59:52;48.15;;;28.50;;
37945;SDS011;23769;52.478;13.448;2024-03-02T09:02:19;47.92;;;28.67;;
37945;SDS011;23769;52.478;13.448;2024-03-02T09:04:46;45.92;;;27.67;;
37945;SDS011;23769;52.478;13.448;2024-03-02T09:07:13;47.85;;;27.05;;
37945;SDS011;23769;52.478;13.448;2024-03-02T09:09:40;47.55;;;26.30;;
37945;SDS011;23769;52.478;13.448;2024-03-02T09:12:08;44.80;;;27.15;;
37945;SDS011;23769;52.478;13.448;2024-03-02T09:14:37;43.60;;;26.90;;
37945;SDS011;23769;52.478;13.448;2024-03-02T09:17:05;44.53;;;29.02;;
37945;SDS011;23769;52.478;13.448;2024-03-02T09:19:33;46.45;;;27.17;;
37945;SDS011;23769;52.478;13.448;2024-03-02T09:22:00;43.38;;;25.52;;
37945;SDS011;23769;52.478;13.448;2024-03-02T09:24:28;42.97;;;25.63;;
37945;SDS011;23769;52.478;13.448;2024-03-02T09:26:55;45.28;;;26.35;;
37945;SDS011;23769;52.478;13.448;2024-03-02T09:29:22;42.25;;;24.70;;
37945;SDS011;23769;52.478;13.448;2024-03-02T09:31:51;42.58;;;24.13;;
37945;SDS011;23769;52.478;13.448;2024-03-02T09:34:18;39.40;;;24.30;;
37945;SDS011;23769;52.478;13.448;2024-03-02T09:36:45;44.78;;;24.10;;
37945;SDS011;23769;52.478;13.448;2024-03-02T09:39:13;41.20;;;25.48;;
37945;SDS011;23769;52.478;13.448;2024-03-02T09:41:40;37.13;;;23.25;;
37945;SDS011;23769;52.478;13.448;2024-03-02T09:44:07;43.38;;;26.42;;
37945;SDS011;23769;52.478;13.448;2024-03-02T09:46:35;44.63;;;26.50;;
37945;SDS011;23769;52.478;13.448;2024-03-02T09:49:05;38.15;;;25.05;;
37945;SDS011;23769;52.478;13.448;2024-03-02T09:51:32;38.67;;;24.50;;
37945;SDS011;23769;52.478;13.448;2024-03-02T09:54:00;35.67;;;23.52;;
37945;SDS011;23769;52.478;13.448;2024-03-02T09:56:28;36.65;;;21.02;;
37945;SDS011;23769;52.478;13.448;2024-03-02T09:58:55;38.30;;;23.88;;
37945;SDS011;23769;52.478;13.448;2024-03-02T10:01:22;38.80;;;23.58;;
37945;SDS011;23769;52.478;13.448;2024-03-02T10:03:49;37.75;;;22.42;;
37945;SDS011;23769;52.478;13.448;2024-03-02T10:06:22;39.63;;;23.33;;
37945;SDS011;23769;52.478;13.448;2024-03-02T10:08:50;32.50;;;20.92;;
37945;SDS011;23769;52.478;13.448;2024-03-02T10:11:27;35.90;;;22.02;;
37945;SDS011;23769;52.478;13.448;2024-03-02T10:14:05;31.65;;;21.52;;
37945;SDS011;23769;52.478;13.448;2024-03-02T10:16:33;32.33;;;19.45;;
37945;SDS011;23769;52.478;13.448;2024-03-02T10:19:17;31.63;;;19.48;;
37945;SDS011;23769;52.478;13.448;2024-03-02T10:21:47;33.17;;;19.17;;
37945;SDS011;23769;52.478;13.448;2024-03-02T10:24:14;34.78;;;21.05;;
37945;SDS011;23769;52.478;13.448;2024-03-02T10:26:41;36.22;;;21.10;;
37945;SDS011;23769;52.478;13.448;2024-03-02T10:29:09;31.35;;;18.50;;
37945;SDS011;23769;52.478;13.448;2024-03-02T10:31:36;31.13;;;18.67;;
37945;SDS011;23769;52.478;13.448;2024-03-02T10:34:04;31.25;;;19.95;;
37945;SDS011;23769;52.478;13.448;2024-03-02T10:36:32;27.88;;;16.58;;
37945;SDS011;23769;52.478;13.448;2024-03-02T10:39:02;29.10;;;18.15;;
37945;SDS011;23769;52.478;13.448;2024-03-02T10:41:31;30.95;;;17.80;;
37945;SDS011;23769;52.478;13.448;2024-03-02T10:43:59;28.83;;;17.10;;
37945;SDS011;23769;52.478;13.448;2024-03-02T10:46:27;27.52;;;16.50;;
37945;SDS011;23769;52.478;13.448;2024-03-02T10:48:55;29.10;;;18.23;;
37945;SDS011;23769;52.478;13.448;2024-03-02T10:51:24;31.45;;;19.23;;
37945;SDS011;23769;52.478;13.448;2024-03-02T10:53:52;26.80;;;17.17;;
37945;SDS011;23769;52.478;13.448;2024-03-02T10:56:26;24.83;;;17.42;;
37945;SDS011;23769;52.478;13.448;2024-03-02T10:58:55;24.33;;;15.95;;
37945;SDS011;23769;52.478;13.448;2024-03-02T11:01:23;30.08;;;19.10;;
37945;SDS011;23769;52.478;13.448;2024-03-02T11:03:51;23.58;;;15.80;;
37945;SDS011;23769;52.478;13.448;2024-03-02T11:06:19;32.30;;;16.55;;
37945;SDS011;23769;52.478;13.448;2024-03-02T11:08:48;26.35;;;17.15;;
37945;SDS011;23769;52.478;13.448;2024-03-02T11:11:18;28.42;;;17.70;;
37945;SDS011;23769;52.478;13.448;2024-03-02T11:13:51;28.30;;;19.10;;
37945;SDS011;23769;52.478;13.448;2024-03-02T11:16:22;33.00;;;18.67;;
37945;SDS011;23769;52.478;13.448;2024-03-02T11:18:52;28.40;;;18.27;;
37945;SDS011;23769;52.478;13.448;2024-03-02T11:21:20;24.45;;;15.95;;
37945;SDS011;23769;52.478;13.448;2024-03-02T11:23:48;28.65;;;16.60;;
37945;SDS011;23769;52.478;13.448;2024-03-02T11:26:18;25.55;;;17.85;;
37945;SDS011;23769;52.478;13.448;2024-03-02T11:28:45;29.17;;;17.15;;
37945;SDS011;23769;52.478;13.448;2024-03-02T11:31:14;29.77;;;17.20;;
37945;SDS011;23769;52.478;13.448;2024-03-02T11:33:41;27.42;;;17.75;;
37945;SDS011;23769;52.478;13.448;2024-03-02T11:36:08;26.27;;;16.40;;
37945;SDS011;23769;52.478;13.448;2024-03-02T11:38:36;29.25;;;18.35;;
37945;SDS011;23769;52.478;13.448;2024-03-02T11:41:05;29.35;;;18.15;;
37945;SDS011;23769;52.478;13.448;2024-03-02T11:43:33;27.52;;;15.93;;
37945;SDS011;23769;52.478;13.448;2024-03-02T11:46:04;25.80;;;16.80;;
37945;SDS011;23769;52.478;13.448;2024-03-02T11:48:35;27.55;;;16.67;;
37945;SDS011;23769;52.478;13.448;2024-03-02T11:51:03;26.27;;;17.88;;
37945;SDS011;23769;52.478;13.448;2024-03-02T11:53:31;24.75;;;15.63;;
37945;SDS011;23769;52.478;13.448;2024-03-02T11:55:58;28.92;;;17.25;;
37945;SDS011;23769;52.478;13.448;2024-03-02T11:58:26;31.83;;;19.30;;
37945;SDS011;23769;52.478;13.448;2024-03-02T12:00:54;28.25;;;18.38;;
37945;SDS011;23769;52.478;13.448;2024-03-02T12:03:22;28.88;;;18.88;;
37945;SDS011;23769;52.478;13.448;2024-03-02T12:05:52;28.35;;;18.90;;
37945;SDS011;23769;52.478;13.448;2024-03-02T12:08:19;30.45;;;18.42;;
37945;SDS011;23769;52.478;13.448;2024-03-02T12:10:55;26.48;;;14.73;;
37945;SDS011;23769;52.478;13.448;2024-03-02T12:13:23;23.48;;;15.35;;
37945;SDS011;23769;52.478;13.448;2024-03-02T12:15:53;23.65;;;15.43;;
37945;SDS011;23769;52.478;13.448;2024-03-02T12:18:21;26.67;;;16.73;;
37945;SDS011;23769;52.478;13.448;2024-03-02T12:20:48;21.95;;;15.07;;
37945;SDS011;23769;52.478;13.448;2024-03-02T12:23:19;21.88;;;14.80;;
37945;SDS011;23769;52.478;13.448;2024-03-02T12:25:46;26.27;;;16.67;;
37945;SDS011;23769;52.478;13.448;2024-03-02T12:28:13;21.88;;;13.82;;
37945;SDS011;23769;52.478;13.448;2024-03-02T12:30:41;23.48;;;14.93;;
37945;SDS011;23769;52.478;13.448;2024-03-02T12:33:08;22.77;;;14.52;;
37945;SDS011;23769;52.478;13.448;2024-03-02T12:35:38;24.92;;;16.25;;
37945;SDS011;23769;52.478;13.448;2024-03-02T12:38:06;22.52;;;14.25;;
37945;SDS011;23769;52.478;13.448;2024-03-02T12:40:35;20.95;;;14.10;;
37945;SDS011;23769;52.478;13.448;2024-03-02T12:43:02;23.77;;;15.18;;
37945;SDS011;23769;52.478;13.448;2024-03-02T12:45:29;22.40;;;14.35;;
37945;SDS011;23769;52.478;13.448;2024-03-02T12:47:57;23.48;;;15.30;;
37945;SDS011;23769;52.478;13.448;2024-03-02T12:50:24;26.80;;;17.00;;
37945;SDS011;23769;52.478;13.448;2024-03-02T12:52:52;22.63;;;14.50;;
37945;SDS011;23769;52.478;13.448;2024-03-02T12:55:20;24.55;;;16.50;;
37945;SDS011;23769;52.478;13.448;2024-03-02T12:57:50;24.10;;;14.35;;
37945;SDS011;23769;52.478;13.448;2024-03-02T13:00:18;22.75;;;14.38;;
37945;SDS011;23769;52.478;13.448;2024-03-02T13:02:46;25.23;;;15.70;;
37945;SDS011;23769;52.478;13.448;2024-03-02T13:05:13;23.52;;;14.40;;
37945;SDS011;23769;52.478;13.448;2024-03-02T13:07:40;23.80;;;14.15;;
37945;SDS011;23769;52.478;13.448;2024-03-02T13:10:10;25.15;;;15.80;;
37945;SDS011;23769;52.478;13.448;2024-03-02T13:12:37;24.13;;;15.40;;
37945;SDS011;23769;52.478;13.448;2024-03-02T13:15:06;21.02;;;14.35;;
37945;SDS011;23769;52.478;13.448;2024-03-02T13:17:34;20.55;;;14.80;;
37945;SDS011;23769;52.478;13.448;2024-03-02T13:20:01;23.77;;;16.20;;
37945;SDS011;23769;52.478;13.448;2024-03-02T13:22:33;19.08;;;12.85;;
37945;SDS011;23769;52.478;13.448;2024-03-02T13:25:00;20.42;;;14.10;;
37945;SDS011;23769;52.478;13.448;2024-03-02T13:27:28;20.02;;;13.18;;
37945;SDS011;23769;52.478;13.448;2024-03-02T13:29:56;20.30;;;13.43;;
37945;SDS011;23769;52.478;13.448;2024-03-02T13:32:25;19.13;;;12.50;;
37945;SDS011;23769;52.478;13.448;2024-03-02T13:34:52;18.17;;;12.73;;
37945;SDS011;23769;52.478;13.448;2024-03-02T13:37:19;18.67;;;12.95;;
37945;SDS011;23769;52.478;13.448;2024-03-02T13:39:47;22.52;;;14.98;;
37945;SDS011;23769;52.478;13.448;2024-03-02T13:42:14;22.02;;;13.20;;
37945;SDS011;23769;52.478;13.448;2024-03-02T13:44:43;22.70;;;14.93;;
37945;SDS011;23769;52.478;13.448;2024-03-02T13:47:11;19.27;;;13.27;;
37945;SDS011;23769;52.478;13.448;2024-03-02T13:49:39;24.15;;;13.93;;
37945;SDS011;23769;52.478;13.448;2024-03-02T13:52:09;19.00;;;12.38;;
37945;SDS011;23769;52.478;13.448;2024-03-02T13:54:38;17.67;;;11.10;;
37945;SDS011;23769;52.478;13.448;2024-03-02T13:57:05;18.15;;;12.10;;
37945;SDS011;23769;52.478;13.448;2024-03-02T13:59:32;22.92;;;13.05;;
37945;SDS011;23769;52.478;13.448;2024-03-02T14:02:00;20.40;;;12.88;;
37945;SDS011;23769;52.478;13.448;2024-03-02T14:04:29;21.02;;;12.65;;
37945;SDS011;23769;52.478;13.448;2024-03-02T14:06:57;19.23;;;11.52;;
37945;SDS011;23769;52.478;13.448;2024-03-02T14:09:25;21.58;;;13.82;;
37945;SDS011;23769;52.478;13.448;2024-03-02T14:11:52;17.73;;;11.88;;
37945;SDS011;23769;52.478;13.448;2024-03-02T14:14:20;19.38;;;12.30;;
37945;SDS011;23769;52.478;13.448;2024-03-02T14:16:47;25.23;;;14.13;;